Language selection

My Weather Profile Weather Topics  | 

Ungava - eastern half: Past 24 Hour Conditions

 

CFB Goose Bay

11:00 PM ADT 09 May 2021
Disclaimer

This table is a summary of hourly weather conditions for the past 24 hours.
Please note that these observations might not always be representative of weather conditions over their associated marine area.

Date / Time
(ADT)
Wind(knots) Conditions Visibility(km) Pressure(kPa) Air tempC) Relative humidity(%) Dew pointC) Wind Chill
09 May 2021
23:00 NNW 13 Light Snowshower 4 100.9 0 88 -2 -6
22:00 NNW 9 Light Snowshower 4 101.0 0 91 -1 -5
21:00 NNW 9 Light Snowshower 4 101.0 0 90 -1 *
20:00 N 6 Light Snowshower 3 101.0 0 90 -1 *
19:00 NNE 10 gust 16 Light Snowshower 5 101.0 0 91 -1 *
18:00 NNE 12 gust 21 Light Snowshower 2 101.0 0 90 -1 *
17:00 NNE 13 gust 21 Light Snowshower 2 101.0 1 90 -1 *
16:00 NNE 17 Light Snowshower 2 101.0 0 90 -1 *
15:00 NNE 19 gust 26 Light Snowshower 5 101.1 1 88 -1 *
14:00 NNE 20 gust 32 Light Snowshower 2 101.2 1 85 -1 *
13:00 NNE 23 gust 31 Cloudy 24 101.2 3 67 -3 *
12:00 NNE 19 gust 28 Cloudy 24 101.3 2 68 -3 *
11:00 NNE 19 gust 24 Cloudy 24 101.4 2 69 -3 *
10:00 NNE 23 gust 29 Cloudy 24 101.4 1 69 -3 *
9:00 NNE 24 gust 30 Cloudy 24 101.5 1 73 -3 *
8:00 NNE 19 gust 26 Cloudy 24 101.7 1 73 -3 *
7:00 N 15 gust 22 Cloudy 24 101.7 0 75 -4 -7
6:00 NNE 17 gust 24 Cloudy 24 101.7 0 75 -3 *
5:00 N 17 gust 24 Cloudy 24 101.7 0 79 -3 *
4:00 N 18 Cloudy 24 101.8 0 82 -2 *
3:00 NNE 13 gust 22 Cloudy 24 101.8 1 81 -2 *
2:00 NNE 17 gust 24 Cloudy 24 101.9 1 83 -2 *
1:00 NNE 17 gust 22 Cloudy 24 101.9 1 81 -2 *
0:00 NNE 15 gust 22 Cloudy 24 102.0 2 79 -2 *
08 May 2021
23:00 NNE 15 gust 22 Cloudy 24 102.1 2 77 -1 *

Zoom-in to make a selection

Map of Atlantic - Labrador marine weather areas Kangiqsualujjuaq Airport Cape Kakkiviak Cape Kiglapait Cartwright Airport CFB Goose Bay Hopedale Mary's Harbour Nain Airport Makkovik Airport Saglek Tukialik Bay
Legend:
buoy Buoy
land station Land Station

Atlantic - Labrador Area

Another Region

What we are doing

Date modified: